Time;durP1;ratioP1;P1;durP2;ratioP2;P2;SDS_P1;SDS_P2;PMS_P1;PMS_P2;Temp;Humidity;BMP_temperature;BMP_pressure;BME280_temperature;BME280_humidity;BME280_pressure;Samples;Min_cycle;Max_cycle;Signal;HPM_P1;HPM_P2
2021/03/09 00:00:28;;;;;;;16.55;10.43;;;1.20;60.50;;;;;;5154120;27;20537;-82
2021/03/09 00:02:55;;;;;;;12.68;9.10;;;1.20;61.40;;;;;;5153185;27;20226;-82
2021/03/09 00:05:22;;;;;;;14.80;9.18;;;1.20;61.60;;;;;;5153669;27;20312;-82
2021/03/09 00:07:49;;;;;;;11.18;9.13;;;1.20;62.00;;;;;;5155613;27;20199;-80
2021/03/09 00:10:17;;;;;;;12.57;8.82;;;1.20;62.00;;;;;;5157467;27;20277;-82
2021/03/09 00:12:44;;;;;;;13.77;10.10;;;1.20;61.30;;;;;;5157668;27;20203;-82
2021/03/09 00:15:12;;;;;;;13.07;8.98;;;1.20;61.50;;;;;;5157480;27;20238;-81
2021/03/09 00:17:40;;;;;;;13.35;9.43;;;1.20;61.20;;;;;;5157107;27;20195;-82
2021/03/09 00:20:08;;;;;;;15.45;10.02;;;1.20;61.40;;;;;;5157363;27;20668;-78
2021/03/09 00:22:35;;;;;;;17.05;9.10;;;1.20;61.50;;;;;;5157133;27;20179;-82
2021/03/09 00:25:02;;;;;;;17.15;10.45;;;1.20;61.10;;;;;;5157145;27;20641;-82
2021/03/09 00:27:30;;;;;;;15.00;9.25;;;1.10;60.70;;;;;;5156859;27;20210;-82
2021/03/09 00:29:57;;;;;;;15.73;8.88;;;1.10;61.50;;;;;;5157235;27;20186;-83
2021/03/09 00:32:24;;;;;;;14.20;10.20;;;1.00;62.20;;;;;;5156968;27;20204;-82
2021/03/09 00:34:51;;;;;;;23.90;11.10;;;1.00;62.70;;;;;;5156921;27;20209;-83
2021/03/09 00:37:18;;;;;;;15.80;9.60;;;1.00;63.70;;;;;;5156520;27;20195;-83
2021/03/09 00:39:49;;;;;;;18.65;9.75;;;1.00;63.20;;;;;;5156737;27;20191;-83
2021/03/09 00:42:21;;;;;;;18.55;11.82;;;1.00;62.20;;;;;;5155379;27;20190;-83
2021/03/09 00:44:55;;;;;;;19.05;11.85;;;0.90;61.90;;;;;;5157190;27;20243;-83
2021/03/09 00:47:22;;;;;;;19.77;13.63;;;0.90;62.10;;;;;;5156406;27;20316;-82
2021/03/09 00:49:49;;;;;;;22.58;13.70;;;0.90;62.10;;;;;;5156840;27;20197;-82
2021/03/09 00:52:15;;;;;;;18.92;11.68;;;0.80;62.80;;;;;;5156440;27;20186;-82
2021/03/09 00:54:42;;;;;;;15.50;10.55;;;0.80;63.30;;;;;;5156787;27;20596;-82
2021/03/09 01:00:02;;;;;;;18.83;11.75;;;0.70;64.30;;;;;;5156402;27;20179;-82
2021/03/09 01:02:29;;;;;;;15.75;10.20;;;0.70;64.80;;;;;;5155957;27;20184;-82
2021/03/09 01:04:55;;;;;;;17.08;10.30;;;0.60;65.40;;;;;;5156722;27;20202;-82
2021/03/09 01:07:22;;;;;;;13.23;9.05;;;0.70;65.60;;;;;;5156077;27;20676;-82
2021/03/09 01:09:49;;;;;;;13.80;9.63;;;0.70;64.80;;;;;;5156316;27;20197;-82
2021/03/09 01:12:16;;;;;;;12.05;8.23;;;0.70;64.90;;;;;;5156129;27;20187;-82
2021/03/09 01:14:42;;;;;;;10.60;8.25;;;0.70;64.60;;;;;;5156610;27;20238;-82
2021/03/09 01:17:10;;;;;;;13.38;7.70;;;0.70;64.50;;;;;;5155621;27;20605;-82
2021/03/09 01:19:37;;;;;;;11.32;8.32;;;0.60;64.60;;;;;;5156309;27;20194;-82
2021/03/09 01:22:03;;;;;;;12.55;8.32;;;0.50;65.00;;;;;;5156021;27;20209;-82
2021/03/09 01:24:30;;;;;;;11.20;6.57;;;0.60;65.40;;;;;;5156143;27;20191;-83
2021/03/09 01:26:57;;;;;;;11.65;7.38;;;0.60;65.50;;;;;;5155228;27;20259;-82
2021/03/09 01:29:24;;;;;;;14.85;10.80;;;0.60;65.50;;;;;;5156088;27;20187;-82
2021/03/09 01:31:50;;;;;;;13.85;9.43;;;0.60;65.80;;;;;;5155139;27;20652;-82
2021/03/09 01:34:18;;;;;;;13.98;8.30;;;0.60;66.20;;;;;;5156002;27;20191;-82
2021/03/09 01:36:45;;;;;;;13.27;9.38;;;0.60;64.70;;;;;;5155289;27;20187;-81
2021/03/09 01:39:13;;;;;;;13.05;9.95;;;0.60;64.00;;;;;;5155969;27;20190;-81
2021/03/09 01:41:40;;;;;;;12.52;8.63;;;0.60;64.00;;;;;;5155524;27;20295;-82
2021/03/09 01:44:07;;;;;;;11.88;9.63;;;0.60;64.20;;;;;;5156149;27;20582;-82
2021/03/09 01:46:34;;;;;;;12.80;9.13;;;0.60;64.20;;;;;;5154776;27;20206;-81
2021/03/09 01:49:01;;;;;;;12.45;9.02;;;0.50;64.50;;;;;;5155960;27;20189;-82
2021/03/09 01:51:29;;;;;;;11.15;7.95;;;0.50;64.50;;;;;;5155194;27;20660;-82
2021/03/09 01:53:56;;;;;;;11.05;7.28;;;0.50;64.70;;;;;;5155245;27;20187;-82
2021/03/09 01:56:24;;;;;;;12.60;8.20;;;0.50;64.90;;;;;;5155137;27;20191;-82
2021/03/09 01:58:52;;;;;;;9.88;7.18;;;0.60;65.10;;;;;;5155129;27;20277;-82
2021/03/09 02:01:18;;;;;;;13.93;8.15;;;0.50;65.00;;;;;;5155309;27;20233;-81
2021/03/09 02:03:46;;;;;;;12.57;8.57;;;0.50;65.40;;;;;;5155126;27;20219;-83
2021/03/09 02:06:13;;;;;;;12.25;8.18;;;0.40;65.40;;;;;;5154547;27;20282;-81
2021/03/09 02:08:41;;;;;;;11.98;7.15;;;0.40;65.40;;;;;;5155399;27;20199;-82
2021/03/09 02:11:33;;;;;;;10.75;8.15;;;0.40;65.30;;;;;;5154705;27;20198;-82
2021/03/09 02:14:06;;;;;;;8.18;6.72;;;0.40;64.90;;;;;;5154498;27;20191;-82
2021/03/09 02:16:40;;;;;;;10.18;6.57;;;0.40;64.10;;;;;;5155255;27;20199;-82
2021/03/09 02:19:43;;;;;;;10.15;7.10;;;0.40;63.90;;;;;;5154652;27;20184;-82
2021/03/09 02:22:29;;;;;;;11.35;7.68;;;0.30;65.00;;;;;;5155102;27;20674;-82
2021/03/09 02:25:12;;;;;;;9.60;6.68;;;0.20;66.00;;;;;;5154479;27;20298;-82
2021/03/09 02:27:53;;;;;;;13.43;7.63;;;0.30;66.30;;;;;;5155095;27;20186;-82
2021/03/09 02:30:25;;;;;;;10.75;6.88;;;0.30;65.90;;;;;;5153823;27;20202;-81
2021/03/09 02:33:00;;;;;;;11.93;7.63;;;0.30;64.10;;;;;;5154706;27;20191;-82
2021/03/09 02:35:29;;;;;;;11.30;7.80;;;0.30;64.10;;;;;;5154104;27;20186;-82
2021/03/09 02:38:02;;;;;;;9.55;6.75;;;0.30;64.50;;;;;;5154823;27;20196;-78
2021/03/09 02:40:31;;;;;;;12.07;7.32;;;0.30;64.40;;;;;;5154473;27;20179;-82
2021/03/09 02:43:06;;;;;;;11.02;7.38;;;0.30;62.90;;;;;;5154667;27;20195;-82
2021/03/09 02:45:35;;;;;;;12.10;8.32;;;0.20;62.90;;;;;;5154152;27;20566;-81
2021/03/09 02:48:02;;;;;;;16.60;8.73;;;0.10;63.70;;;;;;5154386;27;20183;-82
2021/03/09 02:50:29;;;;;;;11.45;8.25;;;0.10;63.80;;;;;;5154545;27;20278;-82
2021/03/09 02:53:01;;;;;;;12.57;7.90;;;0.10;63.50;;;;;;5153777;27;20244;-81
2021/03/09 02:55:29;;;;;;;11.65;6.97;;;0.10;63.40;;;;;;5154591;27;20198;-81
2021/03/09 02:57:58;;;;;;;11.20;7.13;;;0.00;63.50;;;;;;5154102;27;20183;-82
2021/03/09 03:00:25;;;;;;;10.43;7.63;;;0.00;63.30;;;;;;5154558;27;20309;-82
2021/03/09 03:02:54;;;;;;;12.35;8.23;;;0.00;64.20;;;;;;5153391;27;20695;-82
2021/03/09 03:05:22;;;;;;;10.40;7.25;;;0.00;63.40;;;;;;5154618;27;20620;-80
2021/03/09 03:07:49;;;;;;;10.13;7.40;;;-0.10;63.40;;;;;;5154213;27;20191;-82
2021/03/09 03:10:19;;;;;;;16.35;9.50;;;-0.10;63.30;;;;;;5153568;27;20179;-81
2021/03/09 03:12:49;;;;;;;12.27;8.50;;;-0.10;63.70;;;;;;5154545;27;20190;-82
2021/03/09 03:15:17;;;;;;;11.80;8.40;;;-0.20;64.30;;;;;;5153957;27;20279;-81
2021/03/09 03:17:45;;;;;;;12.50;10.07;;;-0.20;63.70;;;;;;5153770;27;20193;-81
2021/03/09 03:20:15;;;;;;;13.43;8.45;;;-0.20;63.70;;;;;;5154134;27;20281;-78
2021/03/09 03:22:44;;;;;;;11.90;9.55;;;-0.10;64.00;;;;;;5133389;28;20599;-81
2021/03/09 03:25:12;;;;;;;13.35;9.05;;;-0.20;64.70;;;;;;5141528;27;20189;-81
2021/03/09 03:27:42;;;;;;;13.38;9.32;;;-0.10;65.20;;;;;;5154373;27;20541;-82
2021/03/09 03:30:11;;;;;;;13.88;9.15;;;-0.10;65.00;;;;;;5153493;27;20187;-82
2021/03/09 03:32:39;;;;;;;11.32;8.68;;;-0.10;64.70;;;;;;5154265;27;21431;-81
2021/03/09 03:35:08;;;;;;;12.32;8.18;;;-0.10;63.90;;;;;;5153543;27;20625;-82
2021/03/09 03:37:36;;;;;;;12.02;8.88;;;-0.10;63.00;;;;;;5154093;27;20294;-81
2021/03/09 03:40:07;;;;;;;14.75;8.52;;;-0.20;62.40;;;;;;5153499;27;20270;-82
2021/03/09 03:42:34;;;;;;;12.88;8.80;;;-0.20;63.00;;;;;;5158031;27;20213;-82
2021/03/09 03:45:01;;;;;;;12.55;8.00;;;-0.20;63.00;;;;;;5157632;27;20179;-82
2021/03/09 03:47:28;;;;;;;13.27;9.30;;;-0.20;62.90;;;;;;5157865;27;20218;-82
2021/03/09 03:49:55;;;;;;;10.68;7.93;;;-0.30;63.10;;;;;;5157545;27;20236;-81
2021/03/09 03:52:32;;;;;;;11.52;8.15;;;-0.30;62.70;;;;;;5157960;27;20194;-81
2021/03/09 03:55:11;;;;;;;12.82;8.95;;;-0.40;61.30;;;;;;5157742;27;20193;-82
2021/03/09 03:57:44;;;;;;;13.80;9.35;;;-0.50;60.80;;;;;;5158042;27;20199;-81
2021/03/09 04:00:12;;;;;;;12.50;8.15;;;-0.60;61.80;;;;;;5157531;27;20179;-82
2021/03/09 04:02:41;;;;;;;13.05;8.63;;;-0.60;62.60;;;;;;5157780;27;20277;-81
2021/03/09 04:05:09;;;;;;;14.85;9.38;;;-0.60;63.40;;;;;;5157144;27;20183;-82
2021/03/09 04:07:39;;;;;;;12.30;8.35;;;-0.70;63.50;;;;;;5157709;27;20226;-82
2021/03/09 04:10:09;;;;;;;12.27;7.97;;;-0.70;63.60;;;;;;5157651;27;20198;-81
2021/03/09 04:12:36;;;;;;;12.90;8.13;;;-0.70;63.90;;;;;;5157687;27;20222;-79
2021/03/09 04:15:06;;;;;;;12.13;8.10;;;-0.70;63.70;;;;;;5136861;27;20188;-82
2021/03/09 04:17:34;;;;;;;11.55;8.00;;;-0.70;63.50;;;;;;5136847;27;20210;-82
2021/03/09 04:20:04;;;;;;;11.15;8.43;;;-0.70;62.90;;;;;;5157215;27;20546;-81
2021/03/09 04:22:33;;;;;;;15.40;8.32;;;-0.70;62.90;;;;;;5157683;27;20194;-81
2021/03/09 04:25:00;;;;;;;11.88;7.75;;;-0.70;62.60;;;;;;5156722;27;20187;-81
2021/03/09 04:27:29;;;;;;;12.88;9.13;;;-0.70;62.20;;;;;;5157389;27;20254;-81
2021/03/09 04:29:58;;;;;;;15.00;10.48;;;-0.70;61.90;;;;;;5157106;27;20183;-81
2021/03/09 04:32:26;;;;;;;16.23;10.07;;;-0.80;61.90;;;;;;5157500;27;20277;-82
2021/03/09 04:34:54;;;;;;;18.80;12.05;;;-0.90;62.90;;;;;;5156949;27;20542;-81
2021/03/09 04:37:22;;;;;;;14.30;9.82;;;-0.90;63.90;;;;;;5156961;27;20179;-80
2021/03/09 04:39:50;;;;;;;15.73;10.82;;;-0.90;64.10;;;;;;5157158;27;20216;-82
2021/03/09 04:42:17;;;;;;;15.85;9.50;;;-1.00;63.40;;;;;;5156794;27;20199;-82
2021/03/09 04:44:45;;;;;;;14.45;10.23;;;-1.00;64.30;;;;;;5157065;27;20671;-81
2021/03/09 04:47:12;;;;;;;15.57;10.15;;;-1.10;65.60;;;;;;5156686;27;20219;-81
2021/03/09 04:49:40;;;;;;;17.60;10.77;;;-1.10;65.90;;;;;;5157052;27;20190;-81
2021/03/09 04:52:06;;;;;;;14.68;10.55;;;-1.00;66.10;;;;;;5156227;27;20191;-80
2021/03/09 04:54:35;;;;;;;16.02;11.27;;;-1.00;66.20;;;;;;5156380;27;20672;-81
2021/03/09 04:57:02;;;;;;;13.85;10.95;;;-0.90;66.30;;;;;;5156764;27;20287;-82
2021/03/09 04:59:29;;;;;;;13.70;10.40;;;-0.90;64.80;;;;;;5156644;27;20190;-81
2021/03/09 05:01:57;;;;;;;13.80;9.90;;;-0.90;64.30;;;;;;5156501;27;20600;-81
2021/03/09 05:04:23;;;;;;;16.02;12.77;;;-0.90;65.20;;;;;;5156552;27;20225;-82
2021/03/09 05:06:50;;;;;;;13.32;8.85;;;-0.90;65.60;;;;;;5156035;27;20219;-81
2021/03/09 05:09:17;;;;;;;16.00;10.70;;;-0.90;66.60;;;;;;5156646;27;20233;-81
2021/03/09 05:11:43;;;;;;;14.10;11.27;;;-0.90;66.70;;;;;;5156178;27;20191;-81
2021/03/09 05:14:10;;;;;;;16.10;12.38;;;-0.90;66.80;;;;;;5156689;27;20199;-82
2021/03/09 05:16:36;;;;;;;17.98;12.35;;;-1.00;66.60;;;;;;5156395;27;20316;-81
2021/03/09 05:19:04;;;;;;;18.23;12.30;;;-1.00;66.50;;;;;;5135752;27;20244;-81
2021/03/09 05:21:31;;;;;;;14.93;11.00;;;-1.00;66.10;;;;;;5135632;27;20642;-82
2021/03/09 05:23:58;;;;;;;16.35;11.32;;;-1.00;66.30;;;;;;5154769;27;20214;-80
2021/03/09 05:26:25;;;;;;;20.17;15.18;;;-1.00;67.40;;;;;;5155945;27;20703;-82
2021/03/09 05:28:52;;;;;;;26.65;18.00;;;-1.10;65.70;;;;;;5156128;27;20201;-82
2021/03/09 05:31:19;;;;;;;23.10;14.98;;;-1.20;65.30;;;;;;5155610;27;20657;-82
2021/03/09 05:33:46;;;;;;;19.58;14.45;;;-1.20;66.10;;;;;;5156044;27;20532;-82
2021/03/09 05:36:14;;;;;;;22.70;14.77;;;-1.20;66.50;;;;;;5155639;27;20232;-82
2021/03/09 05:38:40;;;;;;;20.67;14.07;;;-1.20;65.80;;;;;;5156300;27;20586;-82
2021/03/09 05:41:07;;;;;;;24.17;13.02;;;-1.20;66.90;;;;;;5155765;27;20668;-82
2021/03/09 05:43:34;;;;;;;22.33;14.77;;;-1.10;66.10;;;;;;5155942;27;20198;-82
2021/03/09 05:46:01;;;;;;;26.50;16.50;;;-1.10;66.50;;;;;;5155670;27;20214;-80
2021/03/09 05:48:28;;;;;;;67.35;27.73;;;-1.10;66.20;;;;;;5135121;27;20230;-81
2021/03/09 05:50:55;;;;;;;41.28;20.48;;;-1.10;65.30;;;;;;5135231;27;20188;-81
2021/03/09 05:53:23;;;;;;;25.65;15.27;;;-1.10;65.60;;;;;;5154471;27;20205;-82
2021/03/09 05:55:50;;;;;;;22.05;15.55;;;-1.10;65.60;;;;;;5155598;27;20190;-81
2021/03/09 05:58:17;;;;;;;24.02;15.00;;;-1.00;65.70;;;;;;5155436;27;20187;-81
2021/03/09 06:00:44;;;;;;;24.35;13.13;;;-1.00;65.60;;;;;;5155011;27;20186;-81
2021/03/09 06:03:10;;;;;;;20.45;12.52;;;-0.90;65.90;;;;;;5155688;27;20223;-81
2021/03/09 06:05:37;;;;;;;22.52;14.73;;;-0.80;66.00;;;;;;5154221;27;20187;-81
2021/03/09 06:08:05;;;;;;;23.15;15.68;;;-0.80;65.60;;;;;;5155518;27;20532;-82
2021/03/09 06:10:33;;;;;;;27.17;18.50;;;-0.80;66.30;;;;;;5153317;27;20199;-82
2021/03/09 06:13:00;;;;;;;22.55;13.60;;;-0.70;66.70;;;;;;5155316;27;20244;-81
2021/03/09 06:15:26;;;;;;;53.72;26.88;;;-0.70;66.70;;;;;;5154267;27;20191;-75
2021/03/09 06:17:55;;;;;;;47.42;25.23;;;-0.60;66.60;;;;;;5155203;27;20187;-74
2021/03/09 06:20:31;;;;;;;28.02;14.70;;;-0.60;66.60;;;;;;5154551;27;20705;-74
2021/03/09 06:22:59;;;;;;;33.15;20.65;;;-0.50;66.10;;;;;;5155038;27;20203;-82
2021/03/09 06:25:42;;;;;;;26.65;18.80;;;-0.40;66.20;;;;;;5153474;27;20199;-82
2021/03/09 06:28:10;;;;;;;26.63;17.50;;;-0.20;66.00;;;;;;5153630;27;20187;-82
2021/03/09 06:30:52;;;;;;;24.35;17.73;;;-0.20;65.10;;;;;;5154869;27;20518;-82
2021/03/09 06:33:29;;;;;;;26.95;19.67;;;-0.10;65.10;;;;;;5155027;27;20214;-82
2021/03/09 06:35:57;;;;;;;25.55;16.98;;;0.00;65.50;;;;;;5154753;27;20637;-82
2021/03/09 06:38:25;;;;;;;25.35;18.00;;;0.10;66.70;;;;;;5154213;27;20191;-82
2021/03/09 06:41:14;;;;;;;21.20;14.05;;;0.20;67.10;;;;;;5155007;27;20603;-82
2021/03/09 06:43:42;;;;;;;22.67;13.40;;;0.30;68.50;;;;;;5154601;27;20210;-81
2021/03/09 06:46:18;;;;;;;22.08;14.07;;;0.40;69.10;;;;;;5153841;27;20271;-81
2021/03/09 06:48:49;;;;;;;23.88;13.43;;;0.60;69.80;;;;;;5154639;27;20182;-78
2021/03/09 06:51:26;;;;;;;23.27;13.98;;;0.70;69.70;;;;;;5154287;27;20240;-77
2021/03/09 06:54:01;;;;;;;27.25;13.48;;;0.80;70.30;;;;;;5154648;27;20194;-82
2021/03/09 06:56:29;;;;;;;19.80;13.13;;;0.90;70.70;;;;;;5154356;27;20197;-81
2021/03/09 06:58:56;;;;;;;23.00;13.63;;;1.00;71.10;;;;;;5154703;27;20194;-82
2021/03/09 07:01:23;;;;;;;22.85;13.20;;;1.10;70.20;;;;;;5153826;27;20187;-82
2021/03/09 07:03:51;;;;;;;18.20;12.02;;;1.20;70.80;;;;;;5154654;27;20218;-82
2021/03/09 07:06:17;;;;;;;21.20;12.95;;;1.30;70.10;;;;;;5154157;27;20241;-81
2021/03/09 07:08:44;;;;;;;20.77;11.85;;;1.30;70.20;;;;;;5154319;27;20187;-81
2021/03/09 07:11:12;;;;;;;23.08;15.23;;;1.30;70.70;;;;;;5154409;27;20578;-81
2021/03/09 07:13:44;;;;;;;18.67;13.57;;;1.40;71.10;;;;;;5154437;27;20277;-81
2021/03/09 07:16:13;;;;;;;19.05;13.15;;;1.40;71.90;;;;;;5153448;27;20202;-82
2021/03/09 07:18:45;;;;;;;14.45;10.80;;;1.50;70.90;;;;;;5154036;27;20195;-83
2021/03/09 07:21:12;;;;;;;17.10;12.05;;;1.60;70.60;;;;;;5154237;27;20187;-81
2021/03/09 07:23:40;;;;;;;19.60;11.55;;;1.70;69.50;;;;;;5153775;27;20187;-82
2021/03/09 07:26:11;;;;;;;22.60;11.88;;;1.80;69.20;;;;;;5153602;27;20219;-81
2021/03/09 07:28:45;;;;;;;17.98;12.25;;;1.90;68.40;;;;;;5154417;27;20186;-82
2021/03/09 07:31:13;;;;;;;22.27;14.20;;;1.90;68.70;;;;;;5153595;27;20217;-82
2021/03/09 07:33:40;;;;;;;14.98;11.57;;;1.90;68.40;;;;;;5154740;27;20573;-82
2021/03/09 07:36:08;;;;;;;19.30;11.77;;;2.00;68.70;;;;;;5153928;27;20191;-82
2021/03/09 07:38:37;;;;;;;18.08;10.52;;;2.10;68.30;;;;;;5152216;27;20190;-82
2021/03/09 07:41:04;;;;;;;21.17;13.73;;;2.10;68.60;;;;;;5153375;27;20194;-82
2021/03/09 07:43:31;;;;;;;16.80;12.15;;;2.20;68.30;;;;;;5153663;27;20191;-81
2021/03/09 07:45:59;;;;;;;20.48;13.07;;;2.30;68.10;;;;;;5152814;27;20211;-82
2021/03/09 07:48:27;;;;;;;16.98;12.30;;;2.40;68.10;;;;;;5154124;27;20187;-82
2021/03/09 07:51:06;;;;;;;16.38;11.18;;;2.50;67.70;;;;;;5151239;27;20271;-81
2021/03/09 07:53:32;;;;;;;18.45;12.07;;;2.60;67.30;;;;;;5152144;27;20187;-82
2021/03/09 07:56:14;;;;;;;20.40;13.55;;;2.60;66.70;;;;;;5153617;27;20187;-80
2021/03/09 07:58:40;;;;;;;21.23;13.80;;;2.70;66.00;;;;;;5153938;27;20195;-80
2021/03/09 08:01:09;;;;;;;21.20;12.75;;;2.80;65.90;;;;;;5153011;27;20244;-81
2021/03/09 08:03:36;;;;;;;19.42;12.20;;;2.90;65.50;;;;;;5153502;27;20285;-81
2021/03/09 08:06:05;;;;;;;19.00;13.25;;;3.00;66.20;;;;;;5153304;27;20219;-82
2021/03/09 08:08:45;;;;;;;14.80;10.73;;;3.10;65.90;;;;;;5153088;27;20248;-82
2021/03/09 08:11:37;;;;;;;16.27;11.38;;;3.20;65.40;;;;;;5153384;27;20218;-81
2021/03/09 08:14:22;;;;;;;22.67;12.10;;;3.40;64.60;;;;;;5152801;27;20195;-81
2021/03/09 08:16:53;;;;;;;17.55;11.13;;;3.50;64.70;;;;;;5153164;27;20199;-81
2021/03/09 08:19:42;;;;;;;31.25;14.50;;;3.60;63.80;;;;;;5152272;27;20186;-81
2021/03/09 08:22:10;;;;;;;22.27;14.50;;;3.70;62.50;;;;;;5146010;27;20657;-81
2021/03/09 08:24:58;;;;;;;18.05;12.00;;;3.80;62.80;;;;;;5152180;27;20195;-81
2021/03/09 08:27:39;;;;;;;14.40;10.80;;;4.00;62.20;;;;;;5150168;27;20225;-81
2021/03/09 08:30:39;;;;;;;16.48;11.90;;;4.20;62.30;;;;;;5156594;27;20195;-81
2021/03/09 08:33:34;;;;;;;15.45;11.23;;;4.30;61.30;;;;;;5136631;27;20227;-81
2021/03/09 08:36:23;;;;;;;15.55;10.10;;;4.40;62.10;;;;;;5141862;27;20266;-81
2021/03/09 08:39:22;;;;;;;16.30;10.73;;;4.70;60.20;;;;;;5157055;27;20219;-81
2021/03/09 08:42:03;;;;;;;17.25;10.68;;;5.00;60.50;;;;;;5157056;27;20179;-81
2021/03/09 08:44:29;;;;;;;16.27;11.90;;;5.40;59.70;;;;;;5156532;27;20187;-81
2021/03/09 08:47:03;;;;;;;16.00;12.02;;;5.60;57.60;;;;;;5156883;27;20214;-82
2021/03/09 08:49:46;;;;;;;14.45;10.82;;;5.70;57.90;;;;;;5156793;27;20190;-83
2021/03/09 08:52:39;;;;;;;14.85;10.75;;;6.00;58.50;;;;;;5156997;27;20190;-82
2021/03/09 08:55:07;;;;;;;15.55;11.38;;;6.40;56.90;;;;;;5156667;27;20179;-84
2021/03/09 08:57:35;;;;;;;13.93;11.60;;;6.90;57.00;;;;;;5157021;27;20278;-82
2021/03/09 09:00:04;;;;;;;16.75;13.57;;;7.40;55.70;;;;;;5156540;27;20224;-83
2021/03/09 09:02:31;;;;;;;14.18;11.68;;;8.10;56.60;;;;;;5155988;27;20191;-82
2021/03/09 09:04:59;;;;;;;15.80;13.13;;;9.50;58.80;;;;;;5156777;27;20186;-84
2021/03/09 09:07:28;;;;;;;14.90;11.50;;;11.70;53.90;;;;;;5156342;27;20215;-84
2021/03/09 09:09:57;;;;;;;16.65;12.82;;;13.40;45.40;;;;;;5156221;27;20183;-85
2021/03/09 09:12:29;;;;;;;12.68;11.30;;;14.00;40.80;;;;;;5155518;27;20191;-85
2021/03/09 09:15:14;;;;;;;14.20;11.00;;;14.00;38.20;;;;;;5156123;27;20194;-84
2021/03/09 09:17:43;;;;;;;14.95;12.48;;;15.30;44.20;;;;;;5156359;27;20187;-85
2021/03/09 09:20:13;;;;;;;15.68;12.23;;;18.40;40.50;;;;;;5156233;27;20712;-86
2021/03/09 09:22:40;;;;;;;14.07;12.63;;;21.00;33.00;;;;;;5155618;27;20195;-87
2021/03/09 09:25:08;;;;;;;12.47;11.00;;;22.10;29.20;;;;;;5156537;27;20440;-85
2021/03/09 09:27:40;;;;;;;17.30;13.40;;;22.80;26.90;;;;;;5155464;27;20511;-85
2021/03/09 09:30:09;;;;;;;16.20;13.77;;;22.00;24.80;;;;;;5156537;27;20440;-84
2021/03/09 09:32:54;;;;;;;13.80;12.50;;;21.10;24.90;;;;;;5155537;27;20436;-84
2021/03/09 09:35:24;;;;;;;12.90;11.67;;;20.40;26.40;;;;;;5156094;27;20439;-83
2021/03/09 09:37:54;;;;;;;12.53;11.23;;;21.50;27.40;;;;;;5155720;27;20573;-85
2021/03/09 09:40:23;;;;;;;13.40;11.87;;;23.20;26.50;;;;;;5155935;27;20747;-84
2021/03/09 09:42:58;;;;;;;12.60;11.33;;;24.90;25.10;;;;;;5155188;27;20429;-86
2021/03/09 09:45:26;;;;;;;13.30;11.30;;;25.90;22.90;;;;;;5155970;27;20446;-86
2021/03/09 09:47:54;;;;;;;12.90;11.60;;;25.60;21.20;;;;;;5155556;27;20491;-85
2021/03/09 09:50:22;;;;;;;15.00;11.87;;;25.30;21.20;;;;;;5156082;27;20485;-84
2021/03/09 09:52:57;;;;;;;15.00;12.60;;;24.90;21.90;;;;;;5155340;27;20775;-83
2021/03/09 09:55:25;;;;;;;13.97;11.53;;;25.20;21.70;;;;;;5155768;27;20956;-85
2021/03/09 09:57:53;;;;;;;15.00;13.50;;;25.70;20.70;;;;;;5155322;27;20849;-85
2021/03/09 10:00:22;;;;;;;17.13;14.07;;;26.20;20.60;;;;;;5155383;27;20436;-86
2021/03/09 10:03:15;;;;;;;14.37;12.60;;;25.60;19.90;;;;;;5154948;27;20464;-85
2021/03/09 10:05:43;;;;;;;14.13;12.73;;;25.20;20.60;;;;;;5155469;27;20429;-84
2021/03/09 10:08:11;;;;;;;15.27;13.70;;;25.40;20.70;;;;;;5155000;27;20544;-84
2021/03/09 10:10:39;;;;;;;23.40;21.03;;;26.00;21.30;;;;;;5155382;27;20930;-85
2021/03/09 10:13:19;;;;;;;20.97;15.40;;;26.20;19.30;;;;;;5154955;27;20905;-86
2021/03/09 10:15:47;;;;;;;15.37;13.90;;;26.70;19.70;;;;;;5155536;27;20428;-85
2021/03/09 10:18:22;;;;;;;15.40;12.70;;;27.20;19.90;;;;;;5154611;27;20436;-87
2021/03/09 10:21:03;;;;;;;17.50;14.03;;;28.80;20.70;;;;;;5155599;27;20504;-89
2021/03/09 10:23:29;;;;;;;15.07;13.57;;;30.60;17.80;;;;;;5154967;27;20960;-88
2021/03/09 10:25:58;;;;;;;17.40;15.60;;;31.60;16.60;;;;;;5156224;27;20437;-89
2021/03/09 10:28:26;;;;;;;19.70;15.00;;;32.70;15.90;;;;;;5155728;27;20486;-89
2021/03/09 10:30:53;;;;;;;16.70;15.20;;;33.10;14.10;;;;;;5155148;27;20429;-89
2021/03/09 10:33:21;;;;;;;16.67;15.07;;;32.60;14.40;;;;;;5154051;27;20438;-89
2021/03/09 10:36:05;;;;;;;18.37;16.47;;;32.60;14.10;;;;;;5155486;27;20451;-86
2021/03/09 10:38:32;;;;;;;17.80;16.10;;;32.40;14.10;;;;;;5156384;27;20433;-88
2021/03/09 10:40:59;;;;;;;17.40;15.80;;;32.70;15.00;;;;;;5157849;27;20477;-89
2021/03/09 10:43:42;;;;;;;15.90;14.47;;;32.90;14.60;;;;;;5156078;27;20428;-89
2021/03/09 10:46:09;;;;;;;17.60;16.10;;;33.40;14.20;;;;;;5156290;27;20424;-88
2021/03/09 10:48:37;;;;;;;19.23;16.33;;;34.10;14.00;;;;;;5159337;27;20520;-90
2021/03/09 10:51:14;;;;;;;16.87;15.13;;;34.70;12.70;;;;;;5159235;27;20428;-89
2021/03/09 10:53:40;;;;;;;17.20;15.57;;;34.90;12.90;;;;;;5160177;27;20527;-90
2021/03/09 10:56:07;;;;;;;18.70;17.00;;;35.20;12.60;;;;;;5160928;27;20437;-90
2021/03/09 10:58:33;;;;;;;17.73;16.20;;;35.70;12.60;;;;;;5160488;27;20433;-91
2021/03/09 11:01:00;;;;;;;18.80;15.43;;;36.20;12.40;;;;;;5156997;27;20435;-91
2021/03/09 11:03:27;;;;;;;16.60;15.20;;;36.20;11.40;;;;;;5154573;27;20470;-90
2021/03/09 11:05:54;;;;;;;16.57;15.17;;;35.70;10.70;;;;;;5155307;27;20517;-89
2021/03/09 11:08:22;;;;;;;16.97;15.27;;;34.80;10.60;;;;;;5141383;27;20934;-88
2021/03/09 11:10:51;;;;;;;17.93;15.47;;;33.60;11.20;;;;;;5134359;27;20425;-89
2021/03/09 11:13:18;;;;;;;17.83;16.23;;;32.10;12.00;;;;;;5136675;27;20459;-87
2021/03/09 11:15:45;;;;;;;18.10;16.23;;;30.70;12.50;;;;;;5133227;27;20437;-82
2021/03/09 11:18:12;;;;;;;17.40;15.70;;;29.70;12.90;;;;;;5135931;27;20526;-88
2021/03/09 11:20:39;;;;;;;17.70;15.27;;;28.70;13.70;;;;;;5133243;27;20441;-89
2021/03/09 11:23:07;;;;;;;17.87;16.03;;;27.80;14.30;;;;;;5141066;27;20441;-88
2021/03/09 11:25:36;;;;;;;16.77;15.17;;;26.90;14.80;;;;;;5133138;27;20799;-88
2021/03/09 11:28:02;;;;;;;20.00;16.93;;;26.40;16.00;;;;;;5145545;27;20446;-88
2021/03/09 11:30:29;;;;;;;16.90;15.40;;;26.60;16.30;;;;;;5133076;27;20524;-88
2021/03/09 11:32:55;;;;;;;17.23;15.53;;;26.90;16.20;;;;;;5134854;27;20482;-88
2021/03/09 11:35:22;;;;;;;18.90;15.73;;;27.00;16.00;;;;;;5133210;27;20433;-89
2021/03/09 11:37:48;;;;;;;17.33;15.63;;;27.60;16.70;;;;;;5135746;27;20481;-88
2021/03/09 11:40:17;;;;;;;18.17;16.47;;;28.40;16.50;;;;;;5146153;27;20520;-89
2021/03/09 11:42:44;;;;;;;17.33;15.50;;;29.00;15.70;;;;;;5133150;27;20498;-87
2021/03/09 11:45:10;;;;;;;17.13;15.53;;;29.40;15.10;;;;;;5139163;27;20862;-89
2021/03/09 11:47:37;;;;;;;17.17;15.47;;;29.70;14.70;;;;;;5133088;27;20565;-84
2021/03/09 11:50:05;;;;;;;16.63;15.23;;;30.40;15.00;;;;;;5139353;27;20439;-89
2021/03/09 11:52:31;;;;;;;16.17;14.53;;;31.10;13.90;;;;;;5132883;27;20475;-90
2021/03/09 11:54:58;;;;;;;16.77;15.13;;;31.60;13.10;;;;;;5136299;27;20919;-89
2021/03/09 11:57:26;;;;;;;17.70;15.83;;;31.90;13.20;;;;;;5134273;27;20479;-88
2021/03/09 11:59:53;;;;;;;16.13;14.63;;;32.30;13.10;;;;;;5148201;27;20433;-91
2021/03/09 12:02:19;;;;;;;16.07;14.50;;;32.80;12.10;;;;;;5150762;27;20436;-89
2021/03/09 12:04:46;;;;;;;15.80;14.30;;;33.10;12.00;;;;;;5154865;27;20463;-89
2021/03/09 12:07:12;;;;;;;16.50;14.80;;;33.40;12.10;;;;;;5137642;27;20947;-88
2021/03/09 12:09:39;;;;;;;16.10;14.70;;;33.70;10.60;;;;;;5155361;27;20416;-89
2021/03/09 12:12:06;;;;;;;15.57;13.97;;;33.70;10.50;;;;;;5155514;27;20573;-90
2021/03/09 12:14:33;;;;;;;15.60;14.10;;;33.40;10.90;;;;;;5155568;27;20436;-90
2021/03/09 12:16:59;;;;;;;16.20;14.73;;;33.90;11.10;;;;;;5155147;27;20473;-90
2021/03/09 12:19:26;;;;;;;17.50;15.80;;;34.20;10.20;;;;;;5137095;27;20821;-89
2021/03/09 12:21:52;;;;;;;16.10;14.67;;;34.10;10.80;;;;;;5151532;27;20495;-89
2021/03/09 12:24:19;;;;;;;15.03;13.57;;;33.60;10.90;;;;;;5155232;27;20482;-87
2021/03/09 12:26:45;;;;;;;15.50;14.00;;;33.00;10.90;;;;;;5154889;27;20469;-89
2021/03/09 12:29:12;;;;;;;16.40;14.80;;;32.20;10.70;;;;;;5154530;27;20439;-86
2021/03/09 12:31:39;;;;;;;16.47;14.90;;;31.60;10.70;;;;;;5148334;27;20439;-89
2021/03/09 12:34:07;;;;;;;14.93;13.53;;;31.20;11.40;;;;;;5152116;27;20488;-90
2021/03/09 12:36:33;;;;;;;14.53;13.13;;;31.10;11.50;;;;;;5144151;27;20564;-89
2021/03/09 12:39:00;;;;;;;14.17;12.87;;;30.90;11.70;;;;;;5138099;27;20475;-88
2021/03/09 12:41:26;;;;;;;14.73;13.20;;;30.70;12.20;;;;;;5135936;27;20429;-88
2021/03/09 12:43:53;;;;;;;15.50;14.10;;;30.80;11.80;;;;;;5141594;27;20591;-88
2021/03/09 12:46:19;;;;;;;16.07;14.47;;;30.80;11.30;;;;;;5137849;27;20455;-88
2021/03/09 12:48:46;;;;;;;14.63;13.17;;;30.20;11.90;;;;;;5136718;27;20507;-86